AirNav   ProFlight Series 2 Aviation Headset
 
 293 users online  

22XS Longhorn Auxiliary Landing Strip
Fort Hood (Killeen), Texas, USA

GOING TO FORT HOOD (KILLEEN)?


FAA INFORMATION EFFECTIVE 18 JUNE 2020

Location

FAA Identifier: 22XS
Lat/Long: 31-22-15.6010N 097-40-01.0700W
31-22.260017N 097-40.017833W
31.3710003,-97.6669639
(estimated)
Elevation: 720 ft. / 219 m (estimated)
Variation: 06E (1995)
From city: 6 miles NW of FORT HOOD(KILLEEN), TX
Time zone: UTC -5 (UTC -6 during Standard Time)
Zip code: 76544

Airport Operations

Airport use: Private use. Permission required prior to landing
Control tower: yes
ARTCC: FORT WORTH CENTER
FSS: SAN ANGELO FLIGHT SERVICE STATION
Attendance: 
Segmented circle: no

Airport Communications

CTAF/UNICOM: 122.7
LONGHORN GROUND: 142.8 238.2 38.9 [0900-0100 MON-FRI, OTHER TIMES BY NOTAM.]
LONGHORN TOWER: 138.55 237.5 36.5 [0900-0100 MON-FRI, OTHER TIMES BY NOTAM.]
EMERG: 243.0
WX AWOS-3 at GOP (7 nm NW): 119.725 (254-865-6742)
WX AWOS-3PT at ILE (17 nm S): 128.575 (254-690-3131)
WX AWOS-3PT at TPL (19 nm SE): 134.975 (254-774-8337)
WX AWOS-3PT at PWG (19 nm E): 135.525 (254-848-4581)

Nearby radio navigation aids

VOR radial/distance  VOR name  Freq  Var
GRKr013/21.6GRAY VOR/DME111.8007E
AGJr060/26.8GOOCH SPRINGS VORTAC112.5005E
ACTr220/26.8WACO VORTAC115.3009E

 
NDB name  Hdg/Dist  Freq  Var  ID
ROBINSON252/31.640003EROB .-. --- -...

Airport Services

Runway Information

Runway 15/33

Dimensions: 3488 x 75 ft. / 1063 x 23 m
Surface: asphalt
RUNWAY 15  RUNWAY 33
Traffic pattern: leftleft

Airport Ownership and Management from official FAA records

Ownership: U.S. Army
Owner: US ARMY AERONAUTICAL SVCS AGENCY
FT BELVOIR, VA
Manager: KILLEEN, TX 76549
Phone 254-288-9200
GRK BASE OPS.

Additional Remarks

ATTENDED DUR TRNG PERIODS, OPR HR BY NOTAM (HLR) AS RQR BY TRNG REQ.
RSTD: PPR. CTC HLR OPS DSN 738-3811 OR 737-7585, C254-288-3811 OR C254-449-5146.
RSTD: ALL ARR/DEP ACFT MUST OPEN/CLSD FLT PLANS WITH ROBERT GRAY AAF OPS DSN 738-9200, C254-288-9200, OR UNIT FLT OPS WHEN ON A TACTICAL FLT STRIP.
CAUTION: SOME ACFT OPR IN AREA WO CONSPICUOUS MRK AND BLEND WITH TERRAIN.
CTC FLIGHT FOLLOWING 141.175/357.9.
FOR CD CTC FORT WORTH ARTCC AT 817-858-7584.

Instrument Procedures

There are no published instrument procedures at 22XS.

Some nearby airports with instrument procedures:

KHLR - Hood Army Airfield (14 nm S)
KILE - Skylark Field Airport (17 nm S)
KTPL - Draughon-Miller Central Texas Regional Airport (19 nm SE)
KPWG - Mc Gregor Executive Airport (19 nm E)
KGRK - Robert Gray Army Airfield (20 nm SW)
 
Loc | Ops | Rwys | IFR | FBO | Links
Com | Nav | Svcs | Stats | Notes

City of Fort Worth
 
Area around 22XS (Longhorn Auxiliary Landing Strip)
 
Road maps at: MapQuest Bing Google
 
Aerial photo
No photo
 
Sectional chart

 
Airport distance calculator
Flying to Longhorn Auxiliary Landing Strip? Find the distance to fly.

From to 22XS

Sunrise and sunset
Times for 14-Jul-2020
 Local
(UTC-5)
 Zulu
(UTC)
Morning civil twilight06:1011:10
Sunrise06:3811:38
Sunset20:3501:35
Evening civil twilight21:0302:03

Current date and time
Zulu (UTC)  14-Jul-2020 09:41:28
Local (UTC-5)  14-Jul-2020 04:41:28
 
METAR
KGOP 
7nm NW 
140915Z AUTO 17007KT 10SM CLR 27/20 A2987 RMK AO2
KHLR 
14nm S 
140858Z AUTO 18012KT 10SM CLR 26/21 A2986 RMK AO2 SLP097 T02640205 58005
KILE 
18nm S 
140856Z AUTO 18010KT 10SM 26/21 A2987 RMK AO2 SLP100 T02610211 58005 $
KPWG 
19nm E 
140856Z AUTO 18010KT 10SM CLR 26/22 A2985 RMK AO2 SLP099 T02610222 57006 $
KTPL 
20nm SE 
140851Z AUTO 17017KT 10SM 26/23 A2986 RMK AO2 SLP099 T02560233 58006 $
TAF
KGRK 
20nm SW 
140800Z 1408/1514 18012KT 9999 FEW140 QNH2986INS BECMG 1414/1415 19015G25KT 9999 FEW150 WS015/21037KT QNH2980INS BECMG 1501/1502 18012KT 9999 FEW150 QNH2980INS TX40/1421Z TN23/1412Z
NOTAMs
Click for the latest NOTAMs
NOTAMs are issued by the DoD/FAA and will open in a separate window not controlled by AirNav.

 

 
 

Would you like to see your business listed on this page?

 If your business provides an interesting product or service to pilots, flight crews, aircraft, or users of the Longhorn Auxiliary Landing Strip, you should consider listing it here.  To start the listing process, click on the button below
 
Add a business
 

Other Pages about Longhorn Auxiliary Landing Strip

Update a link
 
Copyright © AirNav, LLC. All rights reserved. Privacy Policy  Contact